Time;durP1;ratioP1;P1;durP2;ratioP2;P2;SDS_P1;SDS_P2;PMS_P1;PMS_P2;Temp;Humidity;BMP_temperature;BMP_pressure;BME280_temperature;BME280_humidity;BME280_pressure;Samples;Min_cycle;Max_cycle;Signal;HPM_P1;HPM_P2
2022/04/05 00:00:44;;;;;;;4.85;2.63;;;;;;;;;;5044097;28;20517;-69
2022/04/05 00:03:10;;;;;;;3.50;2.42;;;;;;;;;;5042066;28;20056;-68
2022/04/05 00:05:36;;;;;;;3.45;3.15;;;;;;;;;;5044303;28;20048;-70
2022/04/05 00:08:02;;;;;;;7.38;3.28;;;;;;;;;;5040027;28;20036;-68
2022/04/05 00:10:28;;;;;;;9.57;4.75;;;;;;;;;;5043351;28;20025;-69
2022/04/05 00:12:54;;;;;;;7.68;3.63;;;;;;;;;;5043135;28;20409;-68
2022/04/05 00:15:20;;;;;;;6.32;3.10;;;;;;;;;;5041584;28;20032;-69
2022/04/05 00:17:46;;;;;;;8.10;3.50;;;;;;;;;;5038824;28;20501;-69
2022/04/05 00:20:12;;;;;;;9.80;3.08;;;;;;;;;;5043434;28;20059;-70
2022/04/05 00:22:38;;;;;;;5.20;2.72;;;;;;;;;;5045867;28;20028;-69
2022/04/05 00:25:05;;;;;;;8.82;3.00;;;;;;;;;;5043935;28;20035;-69
2022/04/05 00:27:31;;;;;;;4.38;3.28;;;;;;;;;;5039992;28;20127;-68
2022/04/05 00:29:59;;;;;;;4.32;3.15;;;;;;;;;;5039395;28;20039;-68
2022/04/05 00:32:25;;;;;;;12.10;3.30;;;;;;;;;;5044035;28;20102;-68
2022/04/05 00:34:51;;;;;;;10.40;3.65;;;;;;;;;;5046033;28;20553;-69
2022/04/05 00:37:17;;;;;;;5.60;3.78;;;;;;;;;;5041349;28;20037;-70
2022/04/05 00:39:43;;;;;;;8.85;5.18;;;;;;;;;;5040037;28;20112;-68
2022/04/05 00:42:11;;;;;;;7.38;3.67;;;;;;;;;;5041969;28;20227;-70
2022/04/05 00:44:37;;;;;;;;;;;1.90;93.20;;;;;;5044871;28;20064;-68
2022/04/05 00:47:14;;;;;;;10.18;2.90;;;;;;;;;;5041496;28;19923;-68
2022/04/05 00:49:40;;;;;;;8.80;4.13;;;;;;;;;;5039541;28;20082;-69
2022/04/05 00:52:06;;;;;;;4.03;2.33;;;1.60;99.90;;;;;;5042091;28;20045;-69
2022/04/05 00:54:35;;;;;;;9.07;3.45;;;1.60;93.30;;;;;;5043488;28;20413;-68
2022/04/05 00:57:01;;;;;;;11.07;4.38;;;;;;;;;;5040721;28;20033;-70
2022/04/05 00:59:29;;;;;;;8.98;4.38;;;;;;;;;;5040432;28;20021;-69
2022/04/05 01:01:56;;;;;;;7.53;4.25;;;;;;;;;;5043322;28;20025;-68
2022/04/05 01:04:22;;;;;;;8.90;4.80;;;;;;;;;;5043066;28;20028;-69
2022/04/05 01:06:48;;;;;;;4.97;3.05;;;;;;;;;;5038599;28;20037;-69
2022/04/05 01:09:15;;;;;;;5.38;3.75;;;;;;;;;;5038998;28;20024;-70
2022/04/05 01:11:41;;;;;;;5.95;3.53;;;;;;;;;;5043699;28;20063;-70
2022/04/05 01:14:07;;;;;;;6.57;3.67;;;;;;;;;;5043073;28;20025;-70
2022/04/05 01:16:34;;;;;;;4.18;3.67;;;;;;;;;;5042241;28;20025;-69
2022/04/05 01:19:00;;;;;;;;;;;;;;;;;;5038359;28;20048;-69
2022/04/05 01:21:27;;;;;;;7.88;3.97;;;;;;;;;;5044107;28;20289;-69
2022/04/05 01:24:06;;;;;;;12.63;4.22;;;1.30;95.00;;;;;;5042286;28;20596;-69
2022/04/05 01:26:42;;;;;;;6.13;3.38;;;;;;;;;;5042031;28;20094;-69
2022/04/05 01:29:08;;;;;;;4.13;3.60;;;;;;;;;;5037826;28;20441;-67
2022/04/05 01:31:38;;;;;;;5.82;2.97;;;;;;;;;;5044303;28;20029;-68
2022/04/05 01:34:04;;;;;;;4.65;3.17;;;;;;;;;;5040844;28;20021;-68
2022/04/05 01:36:31;;;;;;;10.20;4.57;;;;;;;;;;5040943;28;20029;-70
2022/04/05 01:38:57;;;;;;;5.65;3.90;;;;;;;;;;5039090;28;20029;-68
2022/04/05 01:41:22;;;;;;;5.35;4.57;;;1.60;99.90;;;;;;5042982;28;20057;-70
2022/04/05 01:43:48;;;;;;;7.05;3.95;;;;;;;;;;5044218;28;20619;-69
2022/04/05 01:46:14;;;;;;;3.85;2.97;;;;;;;;;;5038686;28;20596;-69
2022/04/05 01:48:40;;;;;;;8.82;3.65;;;;;;;;;;5038678;28;20031;-69
2022/04/05 01:51:07;;;;;;;6.53;3.38;;;;;;;;;;5041335;28;20106;-69
2022/04/05 01:53:33;;;;;;;6.85;3.95;;;;;;;;;;5042764;28;20414;-69
2022/04/05 01:55:59;;;;;;;9.77;6.43;;;;;;;;;;5042102;28;20025;-69
2022/04/05 01:58:25;;;;;;;6.68;3.88;;;;;;;;;;5038019;28;20091;-69
2022/04/05 02:00:51;;;;;;;4.75;2.10;;;;;;;;;;5040427;28;20049;-70
2022/04/05 02:03:17;;;;;;;6.65;2.90;;;;;;;;;;5039945;28;20098;-70
2022/04/05 02:05:46;;;;;;;8.82;3.35;;;;;;;;;;5042321;28;20520;-70
2022/04/05 02:08:13;;;;;;;6.72;3.60;;;;;;;;;;5035901;28;20036;-70
2022/04/05 02:10:39;;;;;;;12.30;4.95;;;;;;;;;;5043012;28;20033;-69
2022/04/05 02:13:05;;;;;;;7.45;4.25;;;;;;;;;;5035071;28;20059;-69
2022/04/05 02:15:31;;;;;;;4.00;3.70;;;;;;;;;;5041638;28;20059;-70
2022/04/05 02:17:57;;;;;;;5.63;3.33;;;;;;;;;;5036919;28;20060;-70
2022/04/05 02:20:23;;;;;;;7.90;3.97;;;;;;;;;;5040745;28;20037;-69
2022/04/05 02:22:49;;;;;;;7.55;3.63;;;;;;;;;;5043089;28;20029;-70
2022/04/05 02:25:17;;;;;;;10.07;3.83;;;;;;;;;;5042229;28;20522;-69
2022/04/05 02:27:43;;;;;;;4.45;2.65;;;;;;;;;;5037107;28;20052;-70
2022/04/05 02:30:10;;;;;;;6.43;3.80;;;;;;;;;;5039189;28;20571;-69
2022/04/05 02:32:36;;;;;;;;;;;;;;;;;;5040642;28;20517;-68
2022/04/05 02:35:03;;;;;;;5.90;4.13;;;;;;;;;;5043210;28;19909;-69
2022/04/05 02:37:29;;;;;;;4.90;4.05;;;;;;;;;;5039108;28;20025;-69
2022/04/05 02:39:55;;;;;;;28.50;8.55;;;;;;;;;;5036761;28;20029;-70
2022/04/05 02:42:21;;;;;;;46.35;12.32;;;;;;;;;;5041555;28;20037;-69
2022/04/05 02:44:47;;;;;;;49.85;12.48;;;;;;;;;;5057294;28;20029;-69
2022/04/05 02:47:15;;;;;;;54.70;13.02;;;;;;;;;;5039777;28;20033;-70
2022/04/05 02:49:41;;;;;;;64.15;15.88;;;;;;;;;;5038002;28;20037;-70
2022/04/05 02:52:07;;;;;;;42.40;12.00;;;;;;;;;;5041203;28;20033;-70
2022/04/05 02:54:33;;;;;;;8.38;5.20;;;;;;;;;;5039864;28;20055;-69
2022/04/05 02:57:00;;;;;;;67.20;12.48;;;;;;;;;;5039670;28;20072;-70
2022/04/05 02:59:26;;;;;;;14.70;5.13;;;;;;;;;;5038346;28;20033;-68
2022/04/05 03:01:52;;;;;;;9.45;4.35;;;;;;;;;;5042177;28;20086;-70
2022/04/05 03:04:18;;;;;;;12.15;5.45;;;;;;;;;;5041204;28;20120;-70
2022/04/05 03:06:44;;;;;;;14.65;5.43;;;;;;;;;;5038202;28;20738;-69
2022/04/05 03:09:10;;;;;;;4.78;3.80;;;;;;;;;;5036693;28;20029;-68
2022/04/05 03:11:36;;;;;;;13.65;4.18;;;;;;;;;;5041487;28;20112;-68
2022/04/05 03:14:02;;;;;;;11.43;6.63;;;;;;;;;;5041595;28;20116;-70
2022/04/05 03:16:28;;;;;;;10.40;4.38;;;;;;;;;;5036929;28;20078;-69
2022/04/05 03:18:54;;;;;;;14.50;4.18;;;;;;;;;;5037520;28;20025;-68
2022/04/05 03:21:20;;;;;;;19.20;4.97;;;;;;;;;;5040108;28;20906;-70
2022/04/05 03:23:46;;;;;;;14.93;6.57;;;;;;;;;;5042340;28;20082;-68
2022/04/05 03:26:12;;;;;;;9.27;4.18;;;;;;;;;;5039225;28;20048;-67
2022/04/05 03:28:38;;;;;;;7.72;5.25;;;;;;;;;;5039248;28;20781;-71
2022/04/05 03:31:04;;;;;;;14.40;6.03;;;;;;;;;;5039113;28;20132;-71
2022/04/05 03:33:30;;;;;;;16.30;6.80;;;;;;;;;;5026879;28;20048;-68
2022/04/05 03:35:56;;;;;;;16.20;7.88;;;;;;;;;;5043053;28;20032;-69
2022/04/05 03:38:22;;;;;;;10.35;6.05;;;;;;;;;;5038677;28;20033;-68
2022/04/05 03:40:48;;;;;;;21.73;7.97;;;2.60;97.00;;;;;;5044862;28;20023;-68
2022/04/05 03:43:14;;;;;;;51.80;22.35;;;;;;;;;;5042449;28;20039;-68
2022/04/05 03:45:40;;;;;;;21.50;9.55;;;;;;;;;;5044013;28;20773;-70
2022/04/05 03:48:06;;;;;;;11.80;4.85;;;;;;;;;;5039882;28;20059;-70
2022/04/05 03:50:33;;;;;;;5.18;4.60;;;;;;;;;;5043607;28;20025;-70
2022/04/05 03:52:59;;;;;;;5.45;3.33;;;;;;;;;;5045172;28;20021;-70
2022/04/05 03:55:25;;;;;;;6.72;3.80;;;;;;;;;;5044196;28;20057;-69
2022/04/05 03:57:52;;;;;;;4.13;2.40;;;;;;;;;;5039519;28;20024;-68
2022/04/05 04:00:18;;;;;;;6.85;3.70;;;;;;;;;;5043397;28;20301;-69
2022/04/05 04:02:44;;;;;;;8.27;3.53;;;;;;;;;;5044235;28;20100;-69
2022/04/05 04:05:10;;;;;;;7.90;5.28;;;;;;;;;;5044745;28;20580;-69
2022/04/05 04:07:39;;;;;;;7.93;4.57;;;;;;;;;;5041887;28;20043;-69
2022/04/05 04:10:06;;;;;;;8.98;4.95;;;2.80;93.50;;;;;;5042398;28;20025;-70
2022/04/05 04:12:32;;;;;;;10.98;3.67;;;;;;;;;;5040221;28;20029;-69
2022/04/05 04:14:58;;;;;;;5.93;3.53;;;3.00;95.10;;;;;;5041421;28;20512;-68
2022/04/05 04:17:25;;;;;;;9.60;4.65;;;2.70;99.90;;;;;;5042028;28;20028;-69
2022/04/05 04:19:51;;;;;;;7.40;5.03;;;;;;;;;;5041144;28;20040;-68
2022/04/05 04:22:17;;;;;;;6.88;4.00;;;;;;;;;;5041870;28;20179;-70
2022/04/05 04:24:43;;;;;;;10.75;6.05;;;;;;;;;;5044311;28;20460;-70
2022/04/05 04:27:11;;;;;;;8.65;3.63;;;;;;;;;;5040586;28;20135;-70
2022/04/05 04:29:37;;;;;;;11.25;5.63;;;;;;;;;;5040207;28;20029;-68
2022/04/05 04:32:03;;;;;;;10.82;5.53;;;;;;;;;;5044647;28;20290;-69
2022/04/05 04:34:29;;;;;;;17.55;4.43;;;;;;;;;;5044810;28;20021;-68
2022/04/05 04:36:56;;;;;;;10.27;7.50;;;;;;;;;;5041881;28;20033;-69
2022/04/05 04:39:22;;;;;;;15.85;6.32;;;;;;;;;;5037997;28;20056;-69
2022/04/05 04:41:48;;;;;;;8.32;4.85;;;;;;;;;;5042588;28;20029;-68
2022/04/05 04:44:14;;;;;;;11.10;5.65;;;;;;;;;;5042859;28;20035;-70
2022/04/05 04:46:40;;;;;;;12.13;5.97;;;;;;;;;;5043983;28;20516;-69
2022/04/05 04:49:06;;;;;;;9.32;5.03;;;;;;;;;;5038397;28;20041;-69
2022/04/05 04:51:32;;;;;;;10.27;4.10;;;;;;;;;;5043924;28;20139;-69
2022/04/05 04:53:58;;;;;;;6.80;3.92;;;;;;;;;;5042284;28;20418;-69
2022/04/05 04:56:24;;;;;;;12.40;4.57;;;;;;;;;;5042390;28;20040;-68
2022/04/05 04:58:50;;;;;;;4.10;3.55;;;;;;;;;;5040925;28;20112;-69
2022/04/05 05:01:16;;;;;;;8.68;6.30;;;;;;;;;;5041160;28;20029;-70
2022/04/05 05:03:42;;;;;;;7.80;3.65;;;;;;;;;;5043703;28;20067;-70
2022/04/05 05:06:08;;;;;;;9.82;5.38;;;;;;;;;;5041078;28;20406;-70
2022/04/05 05:08:34;;;;;;;8.98;5.15;;;;;;;;;;5040253;28;20135;-68
2022/04/05 05:11:00;;;;;;;5.28;3.42;;;;;;;;;;5042558;28;20033;-69
2022/04/05 05:13:28;;;;;;;7.95;4.40;;;;;;;;;;5043449;28;20033;-70
2022/04/05 05:15:54;;;;;;;27.08;11.02;;;;;;;;;;5041947;28;20029;-70
2022/04/05 05:18:20;;;;;;;19.15;7.63;;;;;;;;;;5036735;28;20051;-70
2022/04/05 05:20:46;;;;;;;18.25;7.95;;;3.70;94.30;;;;;;5040819;28;20397;-70
2022/04/05 05:23:11;;;;;;;13.05;6.57;;;3.20;99.90;;;;;;5042071;28;20025;-69
2022/04/05 05:25:38;;;;;;;9.65;4.32;;;;;;;;;;5044113;28;20089;-71
2022/04/05 05:28:04;;;;;;;16.27;6.35;;;;;;;;;;5038388;28;20468;-69
2022/04/05 05:30:30;;;;;;;8.82;3.65;;;;;;;;;;5036439;28;20036;-70
2022/04/05 05:32:55;;;;;;;7.97;5.53;;;3.80;99.50;;;;;;5040791;28;20037;-70
2022/04/05 05:35:22;;;;;;;10.38;5.50;;;;;;;;;;5041777;28;20029;-69
2022/04/05 05:37:48;;;;;;;13.70;4.65;;;;;;;;;;5038740;28;20032;-70
2022/04/05 05:40:15;;;;;;;10.10;4.88;;;;;;;;;;5039961;28;20021;-70
2022/04/05 05:42:58;;;;;;;4.60;4.10;;;;;;;;;;5039389;28;20036;-69
2022/04/05 05:45:24;;;;;;;8.88;4.95;;;;;;;;;;5040513;28;20584;-70
2022/04/05 05:47:51;;;;;;;8.87;5.43;;;;;;;;;;5037222;28;20102;-70
2022/04/05 05:50:17;;;;;;;10.38;4.53;;;;;;;;;;5040269;28;20033;-68
2022/04/05 05:52:44;;;;;;;11.80;5.07;;;;;;;;;;5041229;28;20039;-71
2022/04/05 05:55:11;;;;;;;12.57;5.72;;;;;;;;;;5039672;28;20139;-73
2022/04/05 05:57:37;;;;;;;8.32;4.57;;;;;;;;;;5038984;28;20036;-72
2022/04/05 06:00:06;;;;;;;9.32;4.78;;;4.20;92.80;;;;;;5039587;28;20316;-68
2022/04/05 06:02:32;;;;;;;8.57;4.65;;;;;;;;;;5040933;28;20033;-68
2022/04/05 06:04:58;;;;;;;7.40;3.92;;;;;;;;;;5042584;28;20032;-68
2022/04/05 06:07:24;;;;;;;10.40;5.13;;;;;;;;;;5039395;28;20596;-68
2022/04/05 06:09:50;;;;;;;14.35;5.75;;;;;;;;;;5031436;28;20044;-67
2022/04/05 06:12:16;;;;;;;11.52;5.93;;;;;;;;;;5044290;28;20493;-67
2022/04/05 06:14:42;;;;;;;13.27;7.00;;;;;;;;;;5042256;28;20032;-68
2022/04/05 06:17:07;;;;;;;18.02;7.53;;;4.60;99.90;;;;;;5045006;28;20106;-68
2022/04/05 06:19:33;;;;;;;13.27;5.90;;;;;;;;;;5044347;28;20482;-67
2022/04/05 06:21:59;;;;;;;12.75;7.57;;;4.60;96.30;;;;;;5042432;28;20056;-68
2022/04/05 06:24:25;;;;;;;13.55;4.57;;;;;;;;;;5044158;28;20342;-68
2022/04/05 06:26:51;;;;;;;9.50;4.90;;;;;;;;;;5043374;28;20041;-68
2022/04/05 06:29:17;;;;;;;10.93;6.72;;;;;;;;;;5042247;28;20576;-68
2022/04/05 06:31:43;;;;;;;14.90;5.70;;;;;;;;;;5045979;28;20025;-68
2022/04/05 06:34:09;;;;;;;15.55;6.57;;;;;;;;;;5042452;28;20052;-73
2022/04/05 06:36:35;;;;;;;21.05;7.00;;;;;;;;;;5039855;28;20029;-72
2022/04/05 06:39:01;;;;;;;19.48;6.10;;;;;;;;;;5043398;28;20021;-72
2022/04/05 06:41:27;;;;;;;10.98;5.03;;;6.70;97.90;;;;;;5042317;28;20032;-73
2022/04/05 06:43:53;;;;;;;13.93;6.68;;;;;;;;;;5045247;28;20394;-73
2022/04/05 06:46:22;;;;;;;19.15;8.18;;;;;;;;;;5042252;28;20435;-73
2022/04/05 06:48:48;;;;;;;13.38;6.78;;;;;;;;;;5040328;28;20152;-73
2022/04/05 06:51:14;;;;;;;13.80;6.47;;;;;;;;;;5040908;28;20130;-72
2022/04/05 06:53:40;;;;;;;14.02;6.10;;;;;;;;;;5043122;28;20892;-72
2022/04/05 06:56:08;;;;;;;13.02;5.43;;;;;;;;;;5043292;28;20033;-72
2022/04/05 06:58:34;;;;;;;12.88;4.97;;;;;;;;;;5043476;28;20025;-72
2022/04/05 07:01:00;;;;;;;15.73;5.95;;;;;;;;;;5041944;28;20533;-73
2022/04/05 07:03:26;;;;;;;15.18;5.57;;;;;;;;;;5039243;28;20025;-73
2022/04/05 07:05:52;;;;;;;15.80;7.28;;;;;;;;;;5043085;28;20036;-73
2022/04/05 07:08:18;;;;;;;12.45;6.07;;;;;;;;;;5047595;28;20037;-73
2022/04/05 07:10:44;;;;;;;7.10;4.90;;;;;;;;;;5049061;28;20020;-72
2022/04/05 07:13:10;;;;;;;8.57;4.53;;;;;;;;;;5045127;28;20041;-72
2022/04/05 07:15:36;;;;;;;12.80;5.55;;;;;;;;;;5046076;28;20576;-70
2022/04/05 07:18:02;;;;;;;13.23;6.10;;;;;;;;;;5046229;28;20027;-73
2022/04/05 07:20:28;;;;;;;9.88;4.85;;;;;;;;;;5045653;28;20094;-71
2022/04/05 07:22:54;;;;;;;8.73;5.55;;;;;;;;;;5048856;28;20509;-70
2022/04/05 07:25:20;;;;;;;12.20;4.78;;;7.80;81.20;;;;;;5047302;28;20036;-75
2022/04/05 07:27:47;;;;;;;7.18;5.00;;;7.70;79.50;;;;;;5044578;28;20459;-71
2022/04/05 07:30:13;;;;;;;13.87;5.60;;;;;;;;;;5045544;28;20060;-73
2022/04/05 07:32:44;;;;;;;14.85;5.63;;;7.80;79.20;;;;;;5046143;28;20383;-73
2022/04/05 07:35:11;;;;;;;10.85;5.85;;;;;;;;;;5047727;28;20560;-73
2022/04/05 07:37:37;;;;;;;10.52;6.57;;;;;;;;;;5047913;28;20033;-73
2022/04/05 07:40:05;;;;;;;10.70;6.32;;;8.30;75.80;;;;;;5045262;28;20413;-73
2022/04/05 07:42:32;;;;;;;7.93;4.68;;;;;;;;;;5046175;28;20092;-74
2022/04/05 07:44:58;;;;;;;9.13;5.45;;;;;;;;;;5044292;28;20041;-73
2022/04/05 07:47:24;;;;;;;7.32;3.45;;;8.50;82.60;;;;;;5045858;28;20045;-73
2022/04/05 07:49:50;;;;;;;8.52;4.30;;;;;;;;;;5045902;28;20024;-72
2022/04/05 07:52:16;;;;;;;10.00;3.90;;;;;;;;;;5045504;28;20060;-74
2022/04/05 07:54:42;;;;;;;6.75;3.88;;;8.60;72.50;;;;;;5044352;28;20402;-73
2022/04/05 07:57:10;;;;;;;8.20;5.23;;;;;;;;;;5046913;28;20447;-73
2022/04/05 07:59:36;;;;;;;7.57;5.18;;;;;;;;;;5046220;28;20029;-74
2022/04/05 08:02:02;;;;;;;11.98;5.03;;;;;;;;;;5046807;28;20025;-73
2022/04/05 08:04:28;;;;;;;12.52;5.68;;;;;;;;;;5045471;28;20442;-73
2022/04/05 08:06:54;;;;;;;12.35;5.10;;;;;;;;;;5045063;28;20064;-74
2022/04/05 08:09:20;;;;;;;8.15;4.32;;;;;;;;;;5045017;28;20037;-74
2022/04/05 08:11:46;;;;;;;9.77;3.83;;;;;;;;;;5046569;28;20029;-69
2022/04/05 08:14:12;;;;;;;8.07;4.10;;;;;;;;;;5045863;28;20025;-70
2022/04/05 08:16:39;;;;;;;9.40;4.70;;;;;;;;;;5047294;28;20082;-71
2022/04/05 08:19:05;;;;;;;5.68;3.38;;;;;;;;;;5045046;28;20033;-72
2022/04/05 08:21:31;;;;;;;9.23;4.00;;;;;;;;;;5045595;28;20021;-74
2022/04/05 08:23:57;;;;;;;6.22;4.10;;;;;;;;;;5045936;28;20025;-72
2022/04/05 08:26:23;;;;;;;7.40;3.45;;;;;;;;;;5044494;28;20540;-71
2022/04/05 08:28:49;;;;;;;11.43;4.07;;;;;;;;;;5046727;28;20021;-72
2022/04/05 08:31:18;;;;;;;6.57;3.78;;;;;;;;;;5045660;28;20036;-70
2022/04/05 08:33:44;;;;;;;7.78;4.80;;;;;;;;;;5045682;28;20037;-72
2022/04/05 08:36:10;;;;;;;8.93;3.95;;;;;;;;;;5045581;28;20595;-72
2022/04/05 08:38:36;;;;;;;9.85;4.50;;;;;;;;;;5045478;28;20021;-71
2022/04/05 08:41:05;;;;;;;8.25;5.10;;;14.20;55.00;;;;;;5045941;28;20029;-71
2022/04/05 08:43:31;;;;;;;8.15;4.32;;;;;;;;;;5045927;28;20668;-71
2022/04/05 08:46:01;;;;;;;13.13;4.38;;;;;;;;;;5045311;28;20094;-72
2022/04/05 08:48:30;;;;;;;7.82;3.70;;;15.20;48.20;;;;;;5044012;28;20493;-71
2022/04/05 08:50:59;;;;;;;5.43;3.78;;;;;;;;;;5044998;28;20115;-71
2022/04/05 08:53:25;;;;;;;7.80;3.80;;;;;;;;;;5044404;28;20043;-73
2022/04/05 08:55:51;;;;;;;6.72;2.85;;;;;;;;;;5048297;28;20032;-69
2022/04/05 08:58:18;;;;;;;8.20;3.40;;;;;;;;;;5044084;28;20036;-70
2022/04/05 09:00:44;;;;;;;6.65;2.85;;;;;;;;;;5043926;28;20504;-70
2022/04/05 09:03:10;;;;;;;6.85;2.97;;;;;;;;;;5043349;28;20028;-70
2022/04/05 09:05:40;;;;;;;4.82;2.75;;;;;;;;;;5044838;28;20039;-69
2022/04/05 09:08:13;;;;;;;5.05;3.05;;;;;;;;;;5045034;28;20076;-70
2022/04/05 09:10:39;;;;;;;5.90;3.40;;;;;;;;;;5047216;28;20570;-70
2022/04/05 09:13:05;;;;;;;8.20;2.60;;;;;;;;;;5043172;28;20075;-70
2022/04/05 09:15:34;;;;;;;5.13;3.17;;;18.10;39.50;;;;;;5044173;28;20036;-73
2022/04/05 09:18:00;;;;;;;2.88;2.03;;;;;;;;;;5045517;28;20410;-69
2022/04/05 09:20:27;;;;;;;6.10;3.53;;;;;;;;;;5042944;28;20456;-69
2022/04/05 09:22:54;;;;;;;6.93;3.40;;;;;;;;;;5045309;28;20520;-69
2022/04/05 09:25:20;;;;;;;5.00;3.00;;;16.10;41.50;;;;;;5044562;28;20029;-71
2022/04/05 09:27:49;;;;;;;3.42;2.53;;;;;;;;;;5044076;28;20068;-70
2022/04/05 09:30:16;;;;;;;7.88;2.85;;;;;;;;;;5044811;28;20514;-71
2022/04/05 09:32:46;;;;;;;5.97;3.10;;;16.20;49.20;;;;;;5044539;28;20029;-71
2022/04/05 09:35:13;;;;;;;4.75;2.88;;;;;;;;;;5044975;28;20512;-71
2022/04/05 09:37:39;;;;;;;5.72;3.22;;;;;;;;;;5045346;28;20025;-72
2022/04/05 09:40:17;;;;;;;4.13;2.83;;;15.10;44.70;;;;;;5039728;28;20052;-71
2022/04/05 09:42:59;;;;;;;9.55;3.15;;;;;;;;;;5044435;28;20067;-72
2022/04/05 09:45:43;;;;;;;6.18;2.67;;;;;;;;;;5043386;28;20035;-71
2022/04/05 09:48:10;;;;;;;7.13;3.13;;;;;;;;;;5043307;28;20123;-73
2022/04/05 09:50:57;;;;;;;4.15;2.28;;;;;;;;;;5044222;28;20025;-72
2022/04/05 09:53:23;;;;;;;8.80;3.28;;;;;;;;;;5043140;28;20446;-72
2022/04/05 09:56:01;;;;;;;5.10;3.10;;;;;;;;;;5045314;28;20528;-72
2022/04/05 09:58:29;;;;;;;3.92;2.47;;;;;;;;;;5043782;28;20048;-73
2022/04/05 10:01:07;;;;;;;6.05;2.55;;;;;;;;;;5044023;28;20021;-73
2022/04/05 10:03:33;;;;;;;5.30;2.22;;;;;;;;;;5042434;28;20041;-70
2022/04/05 10:06:00;;;;;;;3.13;2.17;;;;;;;;;;5043146;28;20043;-71
2022/04/05 10:08:27;;;;;;;9.17;2.13;;;;;;;;;;5044091;28;20118;-70
2022/04/05 10:10:54;;;;;;;3.30;2.17;;;;;;;;;;5045707;28;20100;-70
2022/04/05 10:13:23;;;;;;;12.00;1.85;;;;;;;;;;5044028;28;20090;-70
2022/04/05 10:15:51;;;;;;;2.63;1.63;;;;;;;;;;5042096;28;20520;-70
2022/04/05 10:18:20;;;;;;;2.72;1.85;;;;;;;;;;5043014;28;20723;-71
2022/04/05 10:20:48;;;;;;;3.72;2.03;;;;;;;;;;5043333;28;20103;-71
2022/04/05 10:23:16;;;;;;;3.13;1.90;;;;;;;;;;5042702;28;20033;-70
2022/04/05 10:25:41;;;;;;;;;;;;;;;;;;5045196;28;20040;-72
2022/04/05 10:28:08;;;;;;;3.13;1.83;;;;;;;;;;5043317;28;19920;-73
2022/04/05 10:30:41;;;;;;;4.30;1.83;;;19.70;36.70;;;;;;5042950;28;20040;-70
2022/04/05 10:33:25;;;;;;;5.50;2.90;;;20.10;38.80;;;;;;5042448;28;20037;-70
2022/04/05 10:35:53;;;;;;;3.00;1.80;;;;;;;;;;5043254;28;23395;-70
2022/04/05 10:38:21;;;;;;;2.95;1.73;;;;;;;;;;5044833;28;20505;-72
2022/04/05 10:40:47;;;;;;;;;;;;;;;;;;5047839;28;20397;-72
2022/04/05 10:43:17;;;;;;;3.17;1.50;;;;;;;;;;5046647;28;19954;-71
2022/04/05 10:45:44;;;;;;;4.35;2.05;;;;;;;;;;5047044;28;20115;-70
2022/04/05 10:48:22;;;;;;;2.85;2.55;;;;;;;;;;5047848;28;20032;-68
2022/04/05 10:51:09;;;;;;;2.67;2.25;;;;;;;;;;5047519;28;20047;-69
2022/04/05 10:53:36;;;;;;;4.32;1.83;;;;;;;;;;5046963;28;20041;-70
2022/04/05 10:56:02;;;;;;;;;;;;;;;;;;5049466;28;20032;-73
2022/04/05 10:58:29;;;;;;;2.03;1.60;;;;;;;;;;5048265;28;20374;-73
2022/04/05 11:01:13;;;;;;;2.17;1.42;;;;;;;;;;5043220;28;20021;-74
2022/04/05 11:03:40;;;;;;;3.25;1.88;;;;;;;;;;5046125;28;20032;-72
2022/04/05 11:06:06;;;;;;;5.25;2.63;;;;;;;;;;5047796;28;20035;-75
2022/04/05 11:08:33;;;;;;;5.20;2.25;;;;;;;;;;5047286;28;20116;-74
2022/04/05 11:11:04;;;;;;;2.43;1.50;;;;;;;;;;5048551;28;20086;-74
2022/04/05 11:13:30;;;;;;;4.65;1.98;;;;;;;;;;5047559;28;20268;-75
2022/04/05 11:15:57;;;;;;;2.78;1.42;;;;;;;;;;5046592;28;20099;-75
2022/04/05 11:18:33;;;;;;;1.93;1.27;;;18.80;41.20;;;;;;5046004;28;20575;-69
2022/04/05 11:21:00;;;;;;;3.50;2.08;;;;;;;;;;5048390;28;20032;-71
2022/04/05 11:23:41;;;;;;;2.78;1.52;;;;;;;;;;5046282;28;20104;-69
2022/04/05 11:26:22;;;;;;;6.35;2.45;;;19.90;39.70;;;;;;5047082;28;20512;-69
2022/04/05 11:28:48;;;;;;;3.42;1.33;;;;;;;;;;5048008;28;20082;-71
2022/04/05 11:31:27;;;;;;;3.38;1.80;;;19.90;41.00;;;;;;5046880;28;20112;-70
2022/04/05 11:33:53;;;;;;;3.30;1.33;;;;;;;;;;5045641;28;20125;-69
2022/04/05 11:36:23;;;;;;;1.57;1.40;;;;;;;;;;5047548;28;20029;-70
2022/04/05 11:38:49;;;;;;;2.53;1.75;;;;;;;;;;5045339;28;20044;-74
2022/04/05 11:41:22;;;;;;;2.85;1.98;;;;;;;;;;5047023;28;20031;-72
2022/04/05 11:43:52;;;;;;;5.10;1.75;;;;;;;;;;5044837;28;20272;-71
2022/04/05 11:46:18;;;;;;;3.58;1.80;;;;;;;;;;5045114;28;20036;-73
2022/04/05 11:48:45;;;;;;;2.75;1.65;;;;;;;;;;5045233;28;20163;-72
2022/04/05 11:51:14;;;;;;;3.08;1.55;;;19.60;40.90;;;;;;5047218;28;20032;-69
2022/04/05 11:53:41;;;;;;;2.92;1.60;;;;;;;;;;5045615;28;20040;-70
2022/04/05 11:56:13;;;;;;;3.33;1.48;;;;;;;;;;5046915;28;20037;-69
2022/04/05 11:58:41;;;;;;;4.43;1.83;;;;;;;;;;5046985;28;20029;-69
2022/04/05 12:01:09;;;;;;;4.65;2.15;;;19.30;41.30;;;;;;5045153;28;20044;-72
2022/04/05 12:03:42;;;;;;;6.05;2.53;;;;;;;;;;5044071;28;20037;-68
2022/04/05 12:06:08;;;;;;;2.22;1.55;;;19.10;60.50;;;;;;5045875;28;20036;-69
2022/04/05 12:08:34;;;;;;;6.45;1.50;;;;;;;;;;5046548;28;20033;-69
2022/04/05 12:11:00;;;;;;;5.15;2.60;;;;;;;;;;5046747;28;20021;-69
2022/04/05 12:13:29;;;;;;;3.35;2.03;;;;;;;;;;5045956;28;20045;-71
2022/04/05 12:16:00;;;;;;;3.35;2.35;;;18.90;45.90;;;;;;5044661;28;20021;-72
2022/04/05 12:18:28;;;;;;;3.38;2.13;;;;;;;;;;5043336;28;20040;-74
2022/04/05 12:20:54;;;;;;;2.53;1.73;;;;;;;;;;5045882;28;20025;-72
2022/04/05 12:23:21;;;;;;;3.20;2.20;;;;;;;;;;5045875;28;20127;-69
2022/04/05 12:26:02;;;;;;;3.33;2.33;;;;;;;;;;5047196;28;20504;-70
2022/04/05 12:28:28;;;;;;;3.67;2.03;;;;;;;;;;5045936;28;20040;-70
2022/04/05 12:31:02;;;;;;;3.53;1.80;;;17.60;66.30;;;;;;5042307;28;20074;-69
2022/04/05 12:33:28;;;;;;;2.88;2.08;;;17.50;67.30;;;;;;5045035;28;20559;-69
2022/04/05 12:35:53;;;;;;;5.47;3.47;;;17.40;67.80;;;;;;5044315;28;20029;-70
2022/04/05 12:38:19;;;;;;;3.70;2.20;;;17.50;55.30;;;;;;5044137;28;20374;-70
2022/04/05 12:40:45;;;;;;;7.38;2.08;;;;;;;;;;5046734;28;20087;-69
2022/04/05 12:43:19;;;;;;;7.80;2.25;;;;;;;;;;5044705;28;20102;-69
2022/04/05 12:45:46;;;;;;;10.75;2.47;;;;;;;;;;5044073;28;20502;-70
2022/04/05 12:48:15;;;;;;;8.82;2.72;;;;;;;;;;5045229;28;20037;-70
2022/04/05 12:50:42;;;;;;;5.53;2.08;;;;;;;;;;5044939;28;20056;-73
2022/04/05 12:53:09;;;;;;;4.80;2.20;;;;;;;;;;5045981;28;20060;-71
2022/04/05 12:55:35;;;;;;;5.65;2.00;;;;;;;;;;5046580;28;20114;-72
2022/04/05 12:58:01;;;;;;;1.73;1.40;;;;;;;;;;5041302;28;20060;-71
2022/04/05 13:00:28;;;;;;;5.28;2.20;;;;;;;;;;5045635;28;20623;-71
2022/04/05 13:02:59;;;;;;;3.33;2.10;;;;;;;;;;5046032;28;20027;-70
2022/04/05 13:08:18;;;;;;;8.13;1.77;;;;;;;;;;5046679;28;20446;-70
2022/04/05 13:10:46;;;;;;;4.18;2.22;;;;;;;;;;5049345;28;20063;-69
2022/04/05 13:13:30;;;;;;;2.25;1.67;;;;;;;;;;5044872;28;20145;-69
2022/04/05 13:16:02;;;;;;;4.03;1.58;;;;;;;;;;5044716;28;20374;-69
2022/04/05 13:18:37;;;;;;;2.88;1.90;;;;;;;;;;5048316;28;20441;-68
2022/04/05 13:21:09;;;;;;;3.85;1.77;;;;;;;;;;5047292;28;20386;-67
2022/04/05 13:23:37;;;;;;;2.47;1.48;;;;;;;;;;5045796;28;20032;-69
2022/04/05 13:26:17;;;;;;;3.03;1.63;;;17.10;57.50;;;;;;5048036;28;20044;-69
2022/04/05 13:28:44;;;;;;;3.20;1.60;;;;;;;;;;5048785;28;20837;-69
2022/04/05 13:31:15;;;;;;;1.27;0.90;;;17.20;55.00;;;;;;5047363;28;20037;-69
2022/04/05 13:33:42;;;;;;;1.30;0.98;;;;;;;;;;5047810;28;20033;-69
2022/04/05 13:36:09;;;;;;;1.58;1.30;;;;;;;;;;5046754;28;20082;-67
2022/04/05 13:38:35;;;;;;;1.90;0.90;;;;;;;;;;5047408;28;20039;-69
2022/04/05 13:41:04;;;;;;;1.20;1.10;;;;;;;;;;5049212;28;20017;-68
2022/04/05 13:43:30;;;;;;;1.75;1.23;;;;;;;;;;5048475;28;20033;-69
2022/04/05 13:45:56;;;;;;;7.57;1.67;;;;;;;;;;5047451;28;20029;-69
2022/04/05 13:48:23;;;;;;;1.10;0.80;;;;;;;;;;5046614;28;20037;-68
2022/04/05 13:50:49;;;;;;;0.95;0.95;;;;;;;;;;5046312;28;20108;-70
2022/04/05 13:53:17;;;;;;;2.20;1.52;;;;;;;;;;5045201;28;20053;-69
2022/04/05 13:55:44;;;;;;;5.63;1.23;;;;;;;;;;5045705;28;20562;-68
2022/04/05 13:58:10;;;;;;;1.70;1.40;;;;;;;;;;5045202;28;20040;-69
2022/04/05 14:00:36;;;;;;;1.92;1.02;;;;;;;;;;5044376;28;20063;-69
2022/04/05 14:03:02;;;;;;;1.60;1.10;;;;;;;;;;5045962;28;20035;-68
2022/04/05 14:05:28;;;;;;;2.70;1.67;;;;;;;;;;5046472;28;20033;-69
2022/04/05 14:07:56;;;;;;;1.52;1.20;;;;;;;;;;5048111;28;20394;-68
2022/04/05 14:10:22;;;;;;;4.47;2.00;;;;;;;;;;5046581;28;20032;-69
2022/04/05 14:12:47;;;;;;;5.82;1.27;;;15.70;80.10;;;;;;5047381;28;20082;-68
2022/04/05 14:15:13;;;;;;;2.78;0.95;;;;;;;;;;5045473;28;20596;-69
2022/04/05 14:17:40;;;;;;;1.27;0.88;;;;;;;;;;5059790;28;20082;-69
2022/04/05 14:20:06;;;;;;;2.63;1.23;;;;;;;;;;5047642;28;20040;-68
2022/04/05 14:22:32;;;;;;;2.53;1.23;;;15.60;83.80;;;;;;5047432;28;20029;-68
2022/04/05 14:24:58;;;;;;;1.45;1.10;;;;;;;;;;5046409;28;20025;-68
2022/04/05 14:27:24;;;;;;;3.60;0.90;;;;;;;;;;5046076;28;20498;-68
2022/04/05 14:29:50;;;;;;;2.63;0.80;;;;;;;;;;5045885;28;20697;-70